createdAt,value
2023-02-15T00:00:42.582Z,8.80
2023-02-15T00:03:10.549Z,8.80
2023-02-15T00:05:38.454Z,8.70
2023-02-15T00:08:06.269Z,8.70
2023-02-15T00:10:34.058Z,8.60
2023-02-15T00:13:02.450Z,8.60
2023-02-15T00:15:31.175Z,8.60
2023-02-15T00:17:59.445Z,8.50
2023-02-15T00:20:27.269Z,8.50
2023-02-15T00:22:55.111Z,8.40
2023-02-15T00:25:23.041Z,8.40
2023-02-15T00:27:51.066Z,8.30
2023-02-15T00:30:19.172Z,8.30
2023-02-15T00:32:49.614Z,8.30
2023-02-15T00:35:17.738Z,8.30
2023-02-15T00:37:45.746Z,8.30
2023-02-15T00:40:13.937Z,8.30
2023-02-15T00:42:41.907Z,8.30
2023-02-15T00:45:10.463Z,8.30
2023-02-15T00:47:38.400Z,8.40
2023-02-15T00:50:07.132Z,8.30
2023-02-15T00:52:34.935Z,8.30
2023-02-15T00:55:04.857Z,8.30
2023-02-15T00:57:33.036Z,8.20
2023-02-15T01:00:00.823Z,8.20
2023-02-15T01:02:29.784Z,8.10
2023-02-15T01:04:57.680Z,8.10
2023-02-15T01:07:25.712Z,8.10
2023-02-15T01:09:53.718Z,8.00
2023-02-15T01:12:21.646Z,8.00
2023-02-15T01:14:49.494Z,8.00
2023-02-15T01:17:17.975Z,8.00
2023-02-15T01:19:45.836Z,8.00
2023-02-15T01:22:16.921Z,7.90
2023-02-15T01:24:45.398Z,7.90
2023-02-15T01:27:14.326Z,7.90
2023-02-15T01:29:42.350Z,7.90
2023-02-15T01:32:10.331Z,7.90
2023-02-15T01:34:38.165Z,7.90
2023-02-15T01:37:05.794Z,7.90
2023-02-15T01:39:33.711Z,7.90
2023-02-15T01:42:01.530Z,7.80
2023-02-15T01:44:52.924Z,7.80
2023-02-15T01:47:44.246Z,7.80
2023-02-15T01:50:36.008Z,7.70
2023-02-15T01:53:18.087Z,7.70
2023-02-15T01:56:01.398Z,7.70
2023-02-15T01:58:30.628Z,7.60
2023-02-15T02:01:01.857Z,7.60
2023-02-15T02:03:52.110Z,7.60
2023-02-15T02:06:21.174Z,7.50
2023-02-15T02:08:50.069Z,7.50
2023-02-15T02:11:18.572Z,7.50
2023-02-15T02:13:48.758Z,7.50
2023-02-15T02:16:24.169Z,7.40
2023-02-15T02:19:06.353Z,7.50
2023-02-15T02:21:55.695Z,7.50
2023-02-15T02:25:17.057Z,7.40
2023-02-15T02:28:15.803Z,7.40
2023-02-15T02:31:45.638Z,7.40
2023-02-15T02:34:39.055Z,7.40
2023-02-15T02:37:33.460Z,7.40
2023-02-15T02:40:07.478Z,7.40
2023-02-15T02:42:51.446Z,7.40
2023-02-15T02:45:46.565Z,7.40
2023-02-15T02:48:19.350Z,7.40
2023-02-15T02:50:50.312Z,7.40
2023-02-15T02:53:18.429Z,7.40
2023-02-15T02:55:52.431Z,7.40
2023-02-15T02:58:49.930Z,7.30
2023-02-15T03:01:41.530Z,7.30
2023-02-15T03:04:20.490Z,7.30
2023-02-15T03:06:54.258Z,7.30
2023-02-15T03:09:24.996Z,7.30
2023-02-15T03:11:53.189Z,7.20
2023-02-15T03:14:22.983Z,7.30
2023-02-15T03:16:53.095Z,7.20
2023-02-15T03:19:29.041Z,7.20
2023-02-15T03:22:10.606Z,7.20
2023-02-15T03:24:42.714Z,7.20
2023-02-15T03:27:21.407Z,7.20
2023-02-15T03:29:55.217Z,7.20
2023-02-15T03:32:24.850Z,7.10
2023-02-15T03:34:52.717Z,7.10
2023-02-15T03:37:45.817Z,7.10
2023-02-15T03:40:46.234Z,7.10
2023-02-15T03:43:22.813Z,7.20
2023-02-15T03:45:58.541Z,7.10
2023-02-15T03:48:33.349Z,7.10
2023-02-15T03:51:28.297Z,7.10
2023-02-15T03:53:57.476Z,7.10
2023-02-15T03:56:26.396Z,7.10
2023-02-15T03:59:12.628Z,7.10
2023-02-15T04:02:01.236Z,7.10
2023-02-15T04:04:39.417Z,7.10
2023-02-15T04:07:09.862Z,7.10
2023-02-15T04:09:56.558Z,7.10
2023-02-15T04:12:24.675Z,7.00
2023-02-15T04:15:11.168Z,7.00
2023-02-15T04:17:39.439Z,7.00
2023-02-15T04:20:26.480Z,7.00
2023-02-15T04:23:12.877Z,7.00
2023-02-15T04:25:40.772Z,6.90
2023-02-15T04:28:08.965Z,6.90
2023-02-15T04:30:36.974Z,6.90
2023-02-15T04:33:04.801Z,6.90
2023-02-15T04:35:33.077Z,6.90
2023-02-15T04:38:00.990Z,6.90
2023-02-15T04:40:28.852Z,6.80
2023-02-15T04:42:59.677Z,6.80
2023-02-15T04:45:30.710Z,6.90
2023-02-15T04:47:58.624Z,6.80
2023-02-15T04:50:27.085Z,6.80
2023-02-15T04:52:55.307Z,6.80
2023-02-15T04:55:22.954Z,6.80
2023-02-15T04:57:50.733Z,6.70
2023-02-15T05:00:19.175Z,6.70
2023-02-15T05:02:47.372Z,6.70
2023-02-15T05:05:16.447Z,6.70
2023-02-15T05:07:44.331Z,6.70
2023-02-15T05:10:12.286Z,6.60
2023-02-15T05:12:40.149Z,6.60
2023-02-15T05:15:08.198Z,6.60
2023-02-15T05:17:36.258Z,6.60
2023-02-15T05:20:04.622Z,6.60
2023-02-15T05:22:32.710Z,6.60
2023-02-15T05:25:19.167Z,6.70
2023-02-15T05:28:05.644Z,6.70
2023-02-15T05:30:34.220Z,6.70
2023-02-15T05:33:03.135Z,6.80
2023-02-15T05:35:31.388Z,6.80
2023-02-15T05:37:59.210Z,6.90
2023-02-15T05:40:27.261Z,6.90
2023-02-15T05:42:54.984Z,6.90
2023-02-15T05:45:22.818Z,6.90
2023-02-15T05:47:50.511Z,7.00
2023-02-15T05:50:18.641Z,7.00
2023-02-15T05:52:51.291Z,7.00
2023-02-15T05:55:21.082Z,7.10
2023-02-15T05:57:49.907Z,7.10
2023-02-15T06:00:18.041Z,7.10
2023-02-15T06:02:45.874Z,7.20
2023-02-15T06:05:13.784Z,7.20
2023-02-15T06:07:46.402Z,7.20
2023-02-15T06:10:14.197Z,7.30
2023-02-15T06:12:41.837Z,7.30
2023-02-15T06:15:10.158Z,7.40
2023-02-15T06:17:38.007Z,7.40
2023-02-15T06:20:06.531Z,7.50
2023-02-15T06:22:34.492Z,7.60
2023-02-15T06:25:02.801Z,7.70
2023-02-15T06:27:30.749Z,7.80
2023-02-15T06:29:58.757Z,8.00
2023-02-15T06:32:26.623Z,8.10
2023-02-15T06:34:54.409Z,8.30
2023-02-15T06:37:23.123Z,8.40
2023-02-15T06:39:51.056Z,8.50
2023-02-15T06:42:19.772Z,8.60
2023-02-15T06:44:47.712Z,8.80
2023-02-15T06:47:18.598Z,8.90
2023-02-15T06:49:46.369Z,9.00
2023-02-15T06:52:14.425Z,9.20
2023-02-15T06:54:42.301Z,9.30
2023-02-15T06:57:10.952Z,9.50
2023-02-15T06:59:39.309Z,9.70
2023-02-15T07:02:07.758Z,9.90
2023-02-15T07:04:36.424Z,10.00
2023-02-15T07:07:11.832Z,10.20
2023-02-15T07:09:40.802Z,10.40
2023-02-15T07:12:27.763Z,10.50
2023-02-15T07:14:55.674Z,10.70
2023-02-15T07:17:38.797Z,10.90
2023-02-15T07:20:18.876Z,11.00
2023-02-15T07:22:47.300Z,11.30
2023-02-15T07:25:15.410Z,11.40
2023-02-15T07:27:43.592Z,11.60
2023-02-15T07:30:15.320Z,11.80
2023-02-15T07:33:04.807Z,11.90
2023-02-15T07:35:34.434Z,12.10
2023-02-15T07:38:02.717Z,12.30
2023-02-15T07:40:30.472Z,12.50
2023-02-15T07:43:00.478Z,12.70
2023-02-15T07:45:28.523Z,12.80
2023-02-15T07:47:56.268Z,12.90
2023-02-15T07:50:24.213Z,13.10
2023-02-15T07:52:52.003Z,13.30
2023-02-15T07:55:20.325Z,13.50
2023-02-15T07:57:49.978Z,13.60
2023-02-15T08:00:19.956Z,13.70
2023-02-15T08:03:12.221Z,13.70
2023-02-15T08:05:41.977Z,13.70
2023-02-15T08:08:31.120Z,13.80
2023-02-15T08:11:18.727Z,14.10
2023-02-15T08:13:57.815Z,14.20
2023-02-15T08:16:26.589Z,14.50
2023-02-15T08:18:54.807Z,14.40
2023-02-15T08:21:24.990Z,14.30
2023-02-15T08:23:53.731Z,14.20
2023-02-15T08:26:22.034Z,14.20
2023-02-15T08:28:51.829Z,14.40
2023-02-15T08:31:20.326Z,14.20
2023-02-15T08:33:50.280Z,14.30
2023-02-15T08:36:20.728Z,14.50
2023-02-15T08:38:49.200Z,14.80
2023-02-15T08:41:18.631Z,14.80
2023-02-15T08:43:49.114Z,14.90
2023-02-15T08:46:18.270Z,15.10
2023-02-15T08:48:46.736Z,15.40
2023-02-15T08:51:21.549Z,15.30
2023-02-15T08:53:52.165Z,15.30
2023-02-15T08:56:27.503Z,15.10
2023-02-15T08:58:57.215Z,15.50
2023-02-15T09:01:27.418Z,15.70
2023-02-15T09:04:11.573Z,15.80
2023-02-15T09:06:40.987Z,16.00
2023-02-15T09:09:09.539Z,16.40
2023-02-15T09:11:40.584Z,16.80
2023-02-15T09:14:17.424Z,16.60
2023-02-15T09:16:50.280Z,16.60
2023-02-15T09:19:20.438Z,16.70
2023-02-15T09:21:48.789Z,17.00
2023-02-15T09:24:18.154Z,17.20
2023-02-15T09:26:48.110Z,17.50
2023-02-15T09:29:17.267Z,17.80
2023-02-15T09:31:51.370Z,18.00
2023-02-15T09:34:22.260Z,18.40
2023-02-15T09:36:51.523Z,18.80
2023-02-15T09:39:28.811Z,19.20
2023-02-15T09:42:25.633Z,19.10
2023-02-15T09:45:25.048Z,19.30
2023-02-15T09:48:11.333Z,19.20
2023-02-15T09:51:15.459Z,19.40
2023-02-15T09:54:02.563Z,19.70
2023-02-15T09:56:38.928Z,19.90
2023-02-15T09:59:29.706Z,20.00
2023-02-15T10:02:13.128Z,19.70
2023-02-15T10:05:02.701Z,19.70
2023-02-15T10:07:48.492Z,19.70
2023-02-15T10:10:46.322Z,19.50
2023-02-15T10:13:42.772Z,20.50
2023-02-15T10:16:33.649Z,20.40
2023-02-15T10:19:18.253Z,20.80
2023-02-15T10:21:58.338Z,21.60
2023-02-15T10:24:40.658Z,22.70
2023-02-15T10:27:15.615Z,23.30
2023-02-15T10:30:04.020Z,24.20
2023-02-15T10:32:40.108Z,23.70
2023-02-15T10:35:21.390Z,23.40
2023-02-15T10:38:11.377Z,22.80
2023-02-15T10:41:01.253Z,22.90
2023-02-15T10:43:58.865Z,22.80
2023-02-15T10:46:55.914Z,24.20
2023-02-15T10:49:38.950Z,25.30
2023-02-15T10:52:24.027Z,25.10
2023-02-15T10:55:15.565Z,24.90
2023-02-15T10:57:44.506Z,24.70
2023-02-15T11:00:30.482Z,24.90
2023-02-15T11:03:30.743Z,25.20
2023-02-15T11:06:14.915Z,25.40
2023-02-15T11:08:51.630Z,24.90
2023-02-15T11:11:29.400Z,24.80
2023-02-15T11:14:02.910Z,24.40
2023-02-15T11:16:39.373Z,25.00
2023-02-15T11:19:19.176Z,25.00
2023-02-15T11:21:59.557Z,25.60
2023-02-15T11:24:31.260Z,26.50
2023-02-15T11:27:32.176Z,26.20
2023-02-15T11:30:10.861Z,26.60
2023-02-15T11:32:47.372Z,27.60
2023-02-15T11:35:15.379Z,28.60
2023-02-15T11:37:55.326Z,28.80
2023-02-15T11:40:26.560Z,29.00
2023-02-15T11:43:02.571Z,28.60
2023-02-15T11:45:33.026Z,29.60
2023-02-15T11:48:02.637Z,29.80
2023-02-15T11:50:34.506Z,29.40
2023-02-15T11:53:15.568Z,29.20
2023-02-15T11:55:48.080Z,29.70
2023-02-15T11:58:37.554Z,29.30
2023-02-15T12:01:36.131Z,29.90
2023-02-15T12:04:27.452Z,30.80
2023-02-15T12:07:19.387Z,31.70
2023-02-15T12:10:13.125Z,31.70
2023-02-15T12:12:41.716Z,31.50
2023-02-15T12:15:12.032Z,31.20
2023-02-15T12:17:51.363Z,30.80
2023-02-15T12:20:19.383Z,30.70
2023-02-15T12:23:14.007Z,30.80
2023-02-15T12:25:55.563Z,31.20
2023-02-15T12:28:40.706Z,31.80
2023-02-15T12:31:34.551Z,31.60
2023-02-15T12:34:10.783Z,31.60
2023-02-15T12:36:52.199Z,31.20
2023-02-15T12:39:23.603Z,31.60
2023-02-15T12:41:57.826Z,31.30
2023-02-15T12:44:31.695Z,31.00
2023-02-15T12:47:06.250Z,30.50
2023-02-15T12:49:35.638Z,31.30
2023-02-15T12:52:26.339Z,31.60
2023-02-15T12:54:54.809Z,30.90
2023-02-15T12:57:34.859Z,30.10
2023-02-15T13:00:27.243Z,30.30
2023-02-15T13:02:58.135Z,30.00
2023-02-15T13:05:44.993Z,29.90
2023-02-15T13:08:22.453Z,30.30
2023-02-15T13:11:02.657Z,30.80
2023-02-15T13:13:33.681Z,30.80
2023-02-15T13:16:05.629Z,30.50
2023-02-15T13:18:35.878Z,30.80
2023-02-15T13:21:26.418Z,30.90
2023-02-15T13:24:02.216Z,30.60
2023-02-15T13:26:33.377Z,30.30
2023-02-15T13:29:27.585Z,30.50
2023-02-15T13:31:59.078Z,29.80
2023-02-15T13:34:56.076Z,29.80
2023-02-15T13:37:48.010Z,30.60
2023-02-15T13:40:34.604Z,29.90
2023-02-15T13:43:34.691Z,30.30
2023-02-15T13:46:17.225Z,30.90
2023-02-15T13:49:11.589Z,31.60
2023-02-15T13:51:48.867Z,30.90
2023-02-15T13:55:03.117Z,30.50
2023-02-15T13:57:46.365Z,30.50
2023-02-15T14:00:32.509Z,30.10
2023-02-15T14:03:15.203Z,29.10
2023-02-15T14:06:46.392Z,28.40
2023-02-15T14:09:38.397Z,27.40
2023-02-15T14:12:30.468Z,27.30
2023-02-15T14:15:16.881Z,26.10
2023-02-15T14:18:15.194Z,25.70
2023-02-15T14:20:46.723Z,25.00
2023-02-15T14:23:40.189Z,23.40
2023-02-15T14:26:35.947Z,22.00
2023-02-15T14:29:24.526Z,21.20
2023-02-15T14:31:57.455Z,20.10
2023-02-15T14:34:57.853Z,19.50
2023-02-15T14:37:45.974Z,19.20
2023-02-15T14:41:04.729Z,19.00
2023-02-15T14:43:54.610Z,18.80
2023-02-15T14:46:44.231Z,18.50
2023-02-15T14:49:20.395Z,18.40
2023-02-15T14:51:51.891Z,18.30
2023-02-15T14:54:23.335Z,18.10
2023-02-15T14:57:03.979Z,18.00
2023-02-15T14:59:42.994Z,18.20
2023-02-15T15:02:11.697Z,18.70
2023-02-15T15:05:07.702Z,19.00
2023-02-15T15:07:52.620Z,18.70
2023-02-15T15:10:22.007Z,19.00
2023-02-15T15:12:51.631Z,19.50
2023-02-15T15:15:28.207Z,19.70
2023-02-15T15:18:00.610Z,19.40
2023-02-15T15:20:28.771Z,19.00
2023-02-15T15:23:19.533Z,19.20
2023-02-15T15:25:55.625Z,19.50
2023-02-15T15:28:36.070Z,20.50
2023-02-15T15:31:10.643Z,21.70
2023-02-15T15:33:41.540Z,22.90
2023-02-15T15:36:30.333Z,24.20
2023-02-15T15:39:13.241Z,25.70
2023-02-15T15:42:14.608Z,26.50
2023-02-15T15:45:12.301Z,27.30
2023-02-15T15:47:40.403Z,27.60
2023-02-15T15:50:21.711Z,28.10
2023-02-15T15:53:00.687Z,28.00
2023-02-15T15:55:33.790Z,28.30
2023-02-15T15:58:06.090Z,28.80
2023-02-15T16:00:48.300Z,28.80
2023-02-15T16:03:27.547Z,28.20
2023-02-15T16:05:57.578Z,27.90
2023-02-15T16:08:31.854Z,27.20
2023-02-15T16:11:00.520Z,26.70
2023-02-15T16:13:28.769Z,26.50
2023-02-15T16:15:57.613Z,25.80
2023-02-15T16:18:28.578Z,24.90
2023-02-15T16:21:00.774Z,23.90
2023-02-15T16:23:51.396Z,22.80
2023-02-15T16:26:40.883Z,21.50
2023-02-15T16:29:17.678Z,20.30
2023-02-15T16:32:19.015Z,19.20
2023-02-15T16:34:57.788Z,18.50
2023-02-15T16:37:29.804Z,17.80
2023-02-15T16:39:57.939Z,17.30
2023-02-15T16:42:26.690Z,16.70
2023-02-15T16:45:14.698Z,16.40
2023-02-15T16:47:46.170Z,16.10
2023-02-15T16:50:32.262Z,15.80
2023-02-15T16:53:00.823Z,15.60
2023-02-15T16:55:36.597Z,15.40
2023-02-15T16:58:09.007Z,15.20
2023-02-15T17:00:42.104Z,15.20
2023-02-15T17:03:16.156Z,15.00
2023-02-15T17:05:50.169Z,14.90
2023-02-15T17:08:31.203Z,14.70
2023-02-15T17:11:17.994Z,14.60
2023-02-15T17:14:06.909Z,14.50
2023-02-15T17:16:53.524Z,14.30
2023-02-15T17:19:26.127Z,14.30
2023-02-15T17:22:00.753Z,14.20
2023-02-15T17:24:39.680Z,14.20
2023-02-15T17:27:23.976Z,14.10
2023-02-15T17:29:57.592Z,14.00
2023-02-15T17:32:30.113Z,14.00
2023-02-15T17:35:09.787Z,13.90
2023-02-15T17:37:37.994Z,13.80
2023-02-15T17:40:25.730Z,13.70
2023-02-15T17:42:54.644Z,13.70
2023-02-15T17:45:25.984Z,13.70
2023-02-15T17:47:54.794Z,13.60
2023-02-15T17:50:25.867Z,13.50
2023-02-15T17:52:57.006Z,13.50
2023-02-15T17:55:41.784Z,13.40
2023-02-15T17:58:19.982Z,13.30
2023-02-15T18:01:10.205Z,13.20
2023-02-15T18:04:05.340Z,13.10
2023-02-15T18:06:53.275Z,13.00
2023-02-15T18:09:41.861Z,13.00
2023-02-15T18:12:22.277Z,13.00
2023-02-15T18:14:51.546Z,12.90
2023-02-15T18:17:19.861Z,12.90
2023-02-15T18:19:48.398Z,12.90
2023-02-15T18:22:21.092Z,12.90
2023-02-15T18:24:50.093Z,12.90
2023-02-15T18:27:18.246Z,12.80
2023-02-15T18:29:46.708Z,12.80
2023-02-15T18:32:20.132Z,12.70
2023-02-15T18:34:49.988Z,12.70
2023-02-15T18:37:21.483Z,12.60
2023-02-15T18:39:54.662Z,12.50
2023-02-15T18:42:28.563Z,12.50
2023-02-15T18:45:01.994Z,12.50
2023-02-15T18:47:30.380Z,12.50
2023-02-15T18:49:58.376Z,12.50
2023-02-15T18:52:32.114Z,12.40
2023-02-15T18:55:05.040Z,12.40
2023-02-15T18:57:33.760Z,12.40
2023-02-15T19:00:02.982Z,12.30
2023-02-15T19:02:31.280Z,12.30
2023-02-15T19:04:59.368Z,12.30
2023-02-15T19:07:30.210Z,12.20
2023-02-15T19:10:01.247Z,12.20
2023-02-15T19:12:29.957Z,12.20
2023-02-15T19:14:58.082Z,12.10
2023-02-15T19:17:26.869Z,12.10
2023-02-15T19:19:54.930Z,12.10
2023-02-15T19:22:27.800Z,12.00
2023-02-15T19:24:58.465Z,12.00
2023-02-15T19:27:33.295Z,12.00
2023-02-15T19:30:11.669Z,11.90
2023-02-15T19:32:39.942Z,11.90
2023-02-15T19:35:13.965Z,11.90
2023-02-15T19:37:44.645Z,11.80
2023-02-15T19:40:21.131Z,11.80
2023-02-15T19:42:50.175Z,11.70
2023-02-15T19:45:24.088Z,11.70
2023-02-15T19:47:54.418Z,11.70
2023-02-15T19:50:29.729Z,11.70
2023-02-15T19:52:59.736Z,11.70
2023-02-15T19:55:33.989Z,11.70
2023-02-15T19:58:03.236Z,11.70
2023-02-15T20:00:36.028Z,11.60
2023-02-15T20:03:05.286Z,11.60
2023-02-15T20:05:39.640Z,11.60
2023-02-15T20:08:12.047Z,11.60
2023-02-15T20:10:40.219Z,11.60
2023-02-15T20:13:16.815Z,11.60
2023-02-15T20:15:46.360Z,11.50
2023-02-15T20:18:14.748Z,11.50
2023-02-15T20:20:49.126Z,11.50
2023-02-15T20:23:37.399Z,11.40
2023-02-15T20:26:18.842Z,11.40
2023-02-15T20:28:49.054Z,11.40
2023-02-15T20:31:22.425Z,11.30
2023-02-15T20:33:50.886Z,11.30
2023-02-15T20:36:21.674Z,11.30
2023-02-15T20:38:50.353Z,11.30
2023-02-15T20:41:36.647Z,11.20
2023-02-15T20:44:17.056Z,11.20
2023-02-15T20:46:46.077Z,11.20
2023-02-15T20:49:14.074Z,11.10
2023-02-15T20:51:43.780Z,11.10
2023-02-15T20:54:15.497Z,11.10
2023-02-15T20:56:44.224Z,11.10
2023-02-15T20:59:33.529Z,11.10
2023-02-15T21:02:29.256Z,11.10
2023-02-15T21:05:02.477Z,11.10
2023-02-15T21:07:30.709Z,11.00
2023-02-15T21:10:00.672Z,11.00
2023-02-15T21:12:34.239Z,11.00
2023-02-15T21:15:18.045Z,11.00
2023-02-15T21:17:46.578Z,10.90
2023-02-15T21:20:14.960Z,10.90
2023-02-15T21:22:43.100Z,10.90
2023-02-15T21:25:25.106Z,10.80
2023-02-15T21:27:53.876Z,10.80
2023-02-15T21:30:24.305Z,10.80
2023-02-15T21:32:52.865Z,10.80
2023-02-15T21:35:21.959Z,10.90
2023-02-15T21:37:53.105Z,10.90
2023-02-15T21:40:28.689Z,10.90
2023-02-15T21:43:15.364Z,10.90
2023-02-15T21:46:02.246Z,11.00
2023-02-15T21:48:30.396Z,11.00
2023-02-15T21:51:17.130Z,11.00
2023-02-15T21:53:47.155Z,11.10
2023-02-15T21:56:22.998Z,11.10
2023-02-15T21:58:51.312Z,11.10
2023-02-15T22:01:28.206Z,11.10
2023-02-15T22:03:58.335Z,11.10
2023-02-15T22:06:26.530Z,11.20
2023-02-15T22:08:55.181Z,11.20
2023-02-15T22:11:23.268Z,11.20
2023-02-15T22:13:51.770Z,11.20
2023-02-15T22:16:23.526Z,11.20
2023-02-15T22:18:51.409Z,11.20
2023-02-15T22:21:19.965Z,11.20
2023-02-15T22:23:54.336Z,11.20
2023-02-15T22:26:25.648Z,11.20
2023-02-15T22:28:54.495Z,11.30
2023-02-15T22:31:25.808Z,11.20
2023-02-15T22:33:55.924Z,11.20
2023-02-15T22:36:27.093Z,11.20
2023-02-15T22:38:55.998Z,11.20
2023-02-15T22:41:28.081Z,11.10
2023-02-15T22:43:57.458Z,11.10
2023-02-15T22:46:26.397Z,11.10
2023-02-15T22:48:54.783Z,11.10
2023-02-15T22:51:24.920Z,11.10
2023-02-15T22:53:54.153Z,11.10
2023-02-15T22:56:49.290Z,11.00
2023-02-15T22:59:29.461Z,11.00
2023-02-15T23:01:58.835Z,11.00
2023-02-15T23:04:29.241Z,11.00
2023-02-15T23:07:01.067Z,11.00
2023-02-15T23:09:29.190Z,11.00
2023-02-15T23:11:57.936Z,10.90
2023-02-15T23:14:34.962Z,10.90
2023-02-15T23:17:03.250Z,10.90
2023-02-15T23:19:31.116Z,10.80
2023-02-15T23:21:59.248Z,10.80
2023-02-15T23:24:35.175Z,10.70
2023-02-15T23:27:22.398Z,10.70
2023-02-15T23:29:50.418Z,10.70
2023-02-15T23:32:20.668Z,10.60
2023-02-15T23:34:49.316Z,10.60
2023-02-15T23:37:18.394Z,10.50
2023-02-15T23:40:04.718Z,10.50
2023-02-15T23:42:35.742Z,10.40
2023-02-15T23:45:05.613Z,10.40
2023-02-15T23:47:54.364Z,10.40
2023-02-15T23:50:32.882Z,10.30
2023-02-15T23:53:01.936Z,10.30
2023-02-15T23:55:37.055Z,10.20
2023-02-15T23:58:06.873Z,10.20
